Time;durP1;ratioP1;P1;durP2;ratioP2;P2;SDS_P1;SDS_P2;PMS_P1;PMS_P2;Temp;Humidity;BMP_temperature;BMP_pressure;BME280_temperature;BME280_humidity;BME280_pressure;Samples;Min_cycle;Max_cycle;Signal;HPM_P1;HPM_P2
2022/05/11 00:00:14;;;;;;;17.97;11.00;;;;;;;;;;5030866;28;20413;-77
2022/05/11 00:02:40;;;;;;;18.33;10.48;;;;;;;;;;5032184;28;20500;-77
2022/05/11 00:05:08;;;;;;;20.23;10.23;;;13.50;99.90;;;;;;5049297;28;20773;-77
2022/05/11 00:07:34;;;;;;;18.23;10.07;;;;;;;;;;5049279;28;20939;-77
2022/05/11 00:10:00;;;;;;;16.63;10.10;;;13.90;99.90;;;;;;5031163;28;20824;-78
2022/05/11 00:12:26;;;;;;;16.80;9.80;;;;;;;;;;5032289;28;20487;-77
2022/05/11 00:14:53;;;;;;;20.48;10.43;;;;;;;;;;5032952;28;20479;-77
2022/05/11 00:17:19;;;;;;;18.73;10.20;;;;;;;;;;5031322;28;20433;-77
2022/05/11 00:19:45;;;;;;;16.15;9.60;;;;;;;;;;5047652;28;20487;-77
2022/05/11 00:22:11;;;;;;;17.65;9.68;;;;;;;;;;5033327;28;20488;-77
2022/05/11 00:24:37;;;;;;;17.80;9.73;;;;;;;;;;5048871;28;20490;-77
2022/05/11 00:27:04;;;;;;;17.88;10.32;;;;;;;;;;5032511;28;20436;-77
2022/05/11 00:29:30;;;;;;;16.13;9.48;;;13.90;99.90;;;;;;5049914;28;20413;-77
2022/05/11 00:31:56;;;;;;;16.02;9.18;;;;;;;;;;5046793;28;20421;-78
2022/05/11 00:34:23;;;;;;;16.73;8.98;;;;;;;;;;5049964;28;20531;-77
2022/05/11 00:36:49;;;;;;;14.65;9.10;;;;;;;;;;5045414;28;20417;-77
2022/05/11 00:39:15;;;;;;;15.80;8.85;;;;;;;;;;5047399;28;20421;-77
2022/05/11 00:41:42;;;;;;;16.10;9.20;;;14.10;99.90;;;;;;5046072;28;20456;-77
2022/05/11 00:44:09;;;;;;;15.63;9.25;;;;;;;;;;5041564;28;20419;-77
2022/05/11 00:46:39;;;;;;;17.33;9.80;;;14.10;99.90;;;;;;5019930;28;20429;-77
2022/05/11 00:52:11;;;;;;;17.45;9.35;;;14.30;99.90;;;;;;5051815;28;20928;-77
2022/05/11 00:54:44;;;;;;;14.40;9.48;;;14.20;99.90;;;;;;5052263;28;20432;-77
2022/05/11 00:57:20;;;;;;;16.25;10.38;;;14.00;99.90;;;;;;5050886;28;20533;-77
2022/05/11 00:59:48;;;;;;;15.33;9.33;;;14.20;99.90;;;;;;5051007;28;20980;-77
2022/05/11 01:02:15;;;;;;;16.08;9.32;;;;;;;;;;5052982;28;20431;-77
2022/05/11 01:04:43;;;;;;;17.93;10.17;;;13.80;99.90;;;;;;5031376;28;20913;-77
2022/05/11 01:07:11;;;;;;;14.93;9.55;;;13.90;99.90;;;;;;5044763;28;20928;-78
2022/05/11 01:09:37;;;;;;;16.10;9.85;;;;;;;;;;5033652;28;20501;-77
2022/05/11 01:12:09;;;;;;;13.35;9.00;;;14.00;99.90;;;;;;5045198;28;20823;-78
2022/05/11 01:14:38;;;;;;;16.30;9.32;;;;;;;;;;5046041;28;20432;-78
2022/05/11 01:17:04;;;;;;;14.90;9.32;;;13.60;99.90;;;;;;5049565;28;20936;-78
2022/05/11 01:19:32;;;;;;;15.40;9.30;;;13.70;99.90;;;;;;5051022;28;20424;-78
2022/05/11 01:22:23;;;;;;;16.23;9.50;;;13.40;99.90;;;;;;5050919;28;20421;-78
2022/05/11 01:24:50;;;;;;;15.73;9.13;;;;;;;;;;5048715;28;20421;-78
2022/05/11 01:27:22;;;;;;;14.43;9.50;;;;;;;;;;5034395;28;20788;-78
2022/05/11 01:29:48;;;;;;;14.32;9.15;;;;;;;;;;5047369;28;20433;-78
2022/05/11 01:32:14;;;;;;;14.27;8.82;;;;;;;;;;5049298;28;20923;-78
2022/05/11 01:34:41;;;;;;;15.70;8.88;;;;;;;;;;5050514;28;20754;-78
2022/05/11 01:37:07;;;;;;;14.13;9.18;;;;;;;;;;5034820;28;20422;-78
2022/05/11 01:39:33;;;;;;;16.35;9.15;;;;;;;;;;5033304;28;20510;-78
2022/05/11 01:41:59;;;;;;;13.82;8.60;;;;;;;;;;5052031;28;20405;-78
2022/05/11 01:44:25;;;;;;;11.80;8.20;;;;;;;;;;5049623;28;20413;-78
2022/05/11 01:46:53;;;;;;;13.15;8.07;;;;;;;;;;5048679;28;20432;-78
2022/05/11 01:49:21;;;;;;;13.27;8.40;;;13.60;99.90;;;;;;5049700;28;20421;-78
2022/05/11 01:51:47;;;;;;;15.03;8.17;;;;;;;;;;5051660;28;20449;-78
2022/05/11 01:54:14;;;;;;;16.23;8.55;;;;;;;;;;5047309;28;20463;-77
2022/05/11 01:56:40;;;;;;;12.60;8.40;;;;;;;;;;5047445;28;20437;-77
2022/05/11 01:59:06;;;;;;;11.55;8.00;;;;;;;;;;5049453;28;20924;-78
2022/05/11 02:01:34;;;;;;;14.50;8.25;;;;;;;;;;5050398;28;20425;-78
2022/05/11 02:04:00;;;;;;;13.90;8.73;;;;;;;;;;5049087;28;20464;-78
2022/05/11 02:09:12;;;;;;;14.63;9.10;;;;;;;;;;5050094;28;20413;-78
2022/05/11 02:11:38;;;;;;;12.02;8.10;;;;;;;;;;5051220;28;20413;-78
2022/05/11 02:14:05;;;;;;;12.20;9.00;;;;;;;;;;5047188;28;20488;-78
2022/05/11 02:16:32;;;;;;;12.57;8.73;;;;;;;;;;5049952;28;20511;-78
2022/05/11 02:18:58;;;;;;;13.57;8.10;;;;;;;;;;5048779;28;20429;-77
2022/05/11 02:21:24;;;;;;;13.77;8.20;;;13.10;99.90;;;;;;5051324;28;20869;-78
2022/05/11 02:23:51;;;;;;;15.18;8.85;;;;;;;;;;5032027;28;20429;-78
2022/05/11 02:26:19;;;;;;;13.93;8.30;;;;;;;;;;5048898;28;20504;-77
2022/05/11 02:28:50;;;;;;;13.52;7.88;;;13.30;99.90;;;;;;5048813;28;20781;-78
2022/05/11 02:31:16;;;;;;;12.73;8.18;;;;;;;;;;5048380;28;20421;-78
2022/05/11 02:33:42;;;;;;;12.52;8.15;;;;;;;;;;5048639;28;20437;-78
2022/05/11 02:36:08;;;;;;;12.75;8.02;;;;;;;;;;5031042;28;20974;-78
2022/05/11 02:38:35;;;;;;;12.35;8.15;;;;;;;;;;5029944;28;20433;-78
2022/05/11 02:41:01;;;;;;;11.85;7.55;;;;;;;;;;5047092;28;20425;-78
2022/05/11 02:43:27;;;;;;;12.20;6.93;;;;;;;;;;5048711;28;20491;-78
2022/05/11 02:45:54;;;;;;;12.88;7.45;;;;;;;;;;5050358;28;20440;-78
2022/05/11 02:48:22;;;;;;;11.00;7.13;;;;;;;;;;5031304;28;20432;-78
2022/05/11 02:50:56;;;;;;;10.75;7.30;;;13.60;99.90;;;;;;5031676;28;20480;-78
2022/05/11 02:53:23;;;;;;;11.52;7.65;;;;;;;;;;5048988;28;20998;-78
2022/05/11 02:55:50;;;;;;;11.70;7.53;;;13.50;99.90;;;;;;5048820;28;20421;-78
2022/05/11 02:58:18;;;;;;;13.30;7.22;;;13.40;99.90;;;;;;5048506;28;20464;-78
2022/05/11 03:00:47;;;;;;;11.77;7.28;;;13.50;99.90;;;;;;5049126;28;20421;-78
2022/05/11 03:03:14;;;;;;;12.35;7.38;;;;;;;;;;5048437;28;20429;-78
2022/05/11 03:05:41;;;;;;;11.13;7.03;;;;;;;;;;5031712;28;20916;-78
2022/05/11 03:08:07;;;;;;;11.02;6.88;;;;;;;;;;5041079;28;20955;-78
2022/05/11 03:10:33;;;;;;;8.93;6.38;;;;;;;;;;5047473;28;20472;-78
2022/05/11 03:12:59;;;;;;;15.02;7.28;;;13.50;99.90;;;;;;5047964;28;20920;-78
2022/05/11 03:15:25;;;;;;;10.40;6.60;;;;;;;;;;5049957;28;20496;-78
2022/05/11 03:17:51;;;;;;;13.50;6.65;;;;;;;;;;5048711;28;20516;-78
2022/05/11 03:20:23;;;;;;;10.65;6.45;;;;;;;;;;5047610;28;20462;-78
2022/05/11 03:22:50;;;;;;;11.13;6.63;;;;;;;;;;5049590;28;20474;-78
2022/05/11 03:25:17;;;;;;;12.13;7.53;;;13.70;99.90;;;;;;5047785;28;20498;-78
2022/05/11 03:27:43;;;;;;;9.37;6.37;;;;;;;;;;5048108;28;20425;-78
2022/05/11 03:30:09;;;;;;;12.88;6.30;;;;;;;;;;5031734;28;20761;-78
2022/05/11 03:35:20;;;;;;;9.57;6.68;;;;;;;;;;5035875;28;20425;-78
2022/05/11 03:37:46;;;;;;;12.17;6.97;;;;;;;;;;5031704;28;20425;-78
2022/05/11 03:40:12;;;;;;;11.10;6.60;;;;;;;;;;5049596;28;20416;-78
2022/05/11 03:42:39;;;;;;;13.13;7.00;;;13.60;99.90;;;;;;5045319;28;20434;-78
2022/05/11 03:45:11;;;;;;;10.82;6.90;;;13.20;99.90;;;;;;5047982;28;20417;-78
2022/05/11 03:47:37;;;;;;;10.73;7.00;;;;;;;;;;5047886;28;20425;-78
2022/05/11 03:50:03;;;;;;;10.85;7.53;;;;;;;;;;5048040;28;20801;-78
2022/05/11 03:52:29;;;;;;;14.30;8.00;;;;;;;;;;5030165;28;20437;-77
2022/05/11 03:54:56;;;;;;;13.27;7.20;;;;;;;;;;5049532;28;20816;-78
2022/05/11 03:57:22;;;;;;;13.50;7.43;;;;;;;;;;5029135;28;20459;-79
2022/05/11 03:59:47;;;;;;;13.68;7.80;;;13.40;99.90;;;;;;5032947;28;20409;-78
2022/05/11 04:02:13;;;;;;;15.13;7.53;;;;;;;;;;5047710;28;20512;-77
2022/05/11 04:04:39;;;;;;;15.20;7.88;;;;;;;;;;5049066;28;20428;-78
2022/05/11 04:07:06;;;;;;;11.75;7.40;;;;;;;;;;5047906;28;20475;-78
2022/05/11 04:09:32;;;;;;;13.52;7.13;;;;;;;;;;5047321;28;20428;-79
2022/05/11 04:11:58;;;;;;;14.70;7.45;;;;;;;;;;5047790;28;20520;-79
2022/05/11 04:14:24;;;;;;;12.15;7.20;;;;;;;;;;5047408;28;20747;-78
2022/05/11 04:16:54;;;;;;;14.95;7.07;;;13.60;99.90;;;;;;5031619;28;20421;-79
2022/05/11 04:19:20;;;;;;;14.33;7.00;;;;;;;;;;5035267;28;20467;-78
2022/05/11 04:21:46;;;;;;;14.38;7.05;;;;;;;;;;5050930;28;20421;-79
2022/05/11 04:24:12;;;;;;;11.13;6.38;;;;;;;;;;5017997;28;20471;-79
2022/05/11 04:26:39;;;;;;;10.88;6.68;;;;;;;;;;5046665;28;20421;-79
2022/05/11 04:29:05;;;;;;;12.93;6.13;;;;;;;;;;5052357;28;20478;-79
2022/05/11 04:31:31;;;;;;;12.00;6.65;;;;;;;;;;5051349;28;20431;-80
2022/05/11 04:33:57;;;;;;;10.77;6.37;;;;;;;;;;5052210;28;20707;-79
2022/05/11 04:36:23;;;;;;;12.75;6.13;;;;;;;;;;5035494;28;20456;-79
2022/05/11 04:38:49;;;;;;;11.73;6.10;;;;;;;;;;5049264;28;20417;-78
2022/05/11 04:41:16;;;;;;;11.18;6.32;;;;;;;;;;5049422;28;20982;-79
2022/05/11 04:43:43;;;;;;;10.70;6.22;;;;;;;;;;5034600;28;20500;-79
2022/05/11 04:46:09;;;;;;;12.80;6.03;;;;;;;;;;5051112;28;20424;-79
2022/05/11 04:48:35;;;;;;;12.02;5.68;;;;;;;;;;5034373;28;21043;-78
2022/05/11 04:51:03;;;;;;;11.20;5.78;;;13.90;99.90;;;;;;5034746;28;20424;-79
2022/05/11 04:53:29;;;;;;;12.07;5.75;;;;;;;;;;5049888;28;20427;-78
2022/05/11 04:55:55;;;;;;;12.82;6.22;;;;;;;;;;5049985;28;20500;-79
2022/05/11 04:58:21;;;;;;;13.43;5.85;;;;;;;;;;5050177;28;20800;-78
2022/05/11 05:00:47;;;;;;;13.55;5.88;;;;;;;;;;5051324;28;20425;-76
2022/05/11 05:03:14;;;;;;;12.85;5.53;;;14.10;99.90;;;;;;5032838;28;20916;-75
2022/05/11 05:05:40;;;;;;;12.75;5.63;;;;;;;;;;5035736;28;20425;-76
2022/05/11 05:08:07;;;;;;;13.43;6.28;;;;;;;;;;5050417;28;20429;-75
2022/05/11 05:10:33;;;;;;;13.85;5.88;;;14.20;99.90;;;;;;5047182;28;20920;-76
2022/05/11 05:13:08;;;;;;;11.82;5.93;;;14.20;99.90;;;;;;5033624;28;20949;-76
2022/05/11 05:15:35;;;;;;;13.95;6.03;;;;;;;;;;5049071;28;20429;-76
2022/05/11 05:18:03;;;;;;;12.82;5.78;;;14.20;99.90;;;;;;5033509;28;20463;-76
2022/05/11 05:20:30;;;;;;;14.20;6.05;;;;;;;;;;5049195;28;20406;-76
2022/05/11 05:22:56;;;;;;;12.40;5.85;;;;;;;;;;5021698;28;20455;-75
2022/05/11 05:25:22;;;;;;;12.95;5.80;;;;;;;;;;5044965;28;20427;-74
2022/05/11 05:27:51;;;;;;;12.70;5.72;;;;;;;;;;5050822;28;20428;-75
2022/05/11 05:33:03;;;;;;;12.73;6.10;;;;;;;;;;5022886;28;20458;-74
2022/05/11 05:35:29;;;;;;;14.07;6.32;;;14.60;99.90;;;;;;5047303;28;20458;-74
2022/05/11 05:37:55;;;;;;;13.32;6.05;;;14.40;99.90;;;;;;5049148;28;20492;-74
2022/05/11 05:40:21;;;;;;;14.90;6.82;;;;;;;;;;5050643;28;20447;-74
2022/05/11 05:42:47;;;;;;;14.68;6.78;;;14.40;99.90;;;;;;5050500;28;20452;-74
2022/05/11 05:45:14;;;;;;;13.60;7.05;;;;;;;;;;5048169;28;20532;-74
2022/05/11 05:47:40;;;;;;;13.82;6.25;;;14.40;99.90;;;;;;5049473;28;20432;-74
2022/05/11 05:50:07;;;;;;;16.05;6.15;;;;;;;;;;5049778;28;20504;-74
2022/05/11 05:52:33;;;;;;;14.65;6.32;;;;;;;;;;5044972;28;20432;-73
2022/05/11 05:54:59;;;;;;;13.73;6.55;;;;;;;;;;5048558;28;20844;-74
2022/05/11 05:57:27;;;;;;;11.15;6.25;;;;;;;;;;5033732;28;20457;-74
2022/05/11 05:59:53;;;;;;;12.23;5.97;;;;;;;;;;5043173;28;20418;-73
2022/05/11 06:02:19;;;;;;;14.57;6.40;;;;;;;;;;5033646;28;20761;-74
2022/05/11 06:04:50;;;;;;;15.57;6.07;;;;;;;;;;5048551;28;20417;-74
2022/05/11 06:07:17;;;;;;;14.57;6.28;;;;;;;;;;5050005;28;20430;-73
2022/05/11 06:09:43;;;;;;;13.15;6.07;;;14.70;99.90;;;;;;5048079;28;20486;-73
2022/05/11 06:12:11;;;;;;;13.60;6.18;;;;;;;;;;5051702;28;20889;-73
2022/05/11 06:14:38;;;;;;;12.65;6.28;;;;;;;;;;5048745;28;20471;-74
2022/05/11 06:17:04;;;;;;;14.23;6.53;;;;;;;;;;5047883;28;20437;-74
2022/05/11 06:19:30;;;;;;;14.18;6.30;;;;;;;;;;5044797;28;20412;-74
2022/05/11 06:21:56;;;;;;;13.77;6.55;;;14.90;99.90;;;;;;5050308;28;20406;-74
2022/05/11 06:24:22;;;;;;;14.43;6.13;;;15.20;99.90;;;;;;5029871;28;20425;-74
2022/05/11 06:26:48;;;;;;;13.27;5.68;;;15.30;99.90;;;;;;5049873;28;20452;-74
2022/05/11 06:29:14;;;;;;;16.00;6.43;;;15.20;99.90;;;;;;5049443;28;20421;-74
2022/05/11 06:31:40;;;;;;;14.38;6.07;;;;;;;;;;5042330;28;20453;-74
2022/05/11 06:34:06;;;;;;;13.77;6.47;;;15.60;99.90;;;;;;5044915;28;20425;-74
2022/05/11 06:36:32;;;;;;;16.30;5.87;;;;;;;;;;5049227;28;20418;-74
2022/05/11 06:38:58;;;;;;;13.88;6.38;;;15.60;99.90;;;;;;5049697;28;20421;-74
2022/05/11 06:41:27;;;;;;;14.13;6.40;;;15.60;99.90;;;;;;5027822;28;20425;-73
2022/05/11 06:43:54;;;;;;;15.57;6.15;;;15.20;99.90;;;;;;5045873;28;20967;-74
2022/05/11 06:46:21;;;;;;;13.35;5.88;;;;;;;;;;5048463;28;20409;-74
2022/05/11 06:48:48;;;;;;;16.88;6.43;;;;;;;;;;5047662;28;20769;-74
2022/05/11 06:51:15;;;;;;;17.35;5.80;;;15.70;99.90;;;;;;5049191;28;20483;-74
2022/05/11 07:01:46;;;;;;;14.13;6.25;;;;;;;;;;5050336;28;20974;-75
2022/05/11 07:04:11;;;;;;;15.32;5.80;;;15.80;99.90;;;;;;5046294;28;20413;-72
2022/05/11 07:06:37;;;;;;;13.00;6.00;;;;;;;;;;5031375;28;20421;-74
2022/05/11 07:09:03;;;;;;;13.57;6.15;;;15.80;99.90;;;;;;5048109;28;20820;-73
2022/05/11 07:14:13;;;;;;;15.55;6.38;;;16.00;99.90;;;;;;5029947;28;21237;-72
2022/05/11 07:16:39;;;;;;;14.52;6.00;;;16.00;99.90;;;;;;5048553;28;20429;-72
2022/05/11 07:19:06;;;;;;;17.38;6.32;;;16.20;99.90;;;;;;5047619;28;20766;-73
2022/05/11 07:21:32;;;;;;;11.25;5.50;;;16.10;99.90;;;;;;5050626;28;20451;-71
2022/05/11 07:23:58;;;;;;;11.63;5.27;;;16.00;99.90;;;;;;5049847;28;20420;-72
2022/05/11 07:26:24;;;;;;;18.27;5.80;;;16.30;99.90;;;;;;5050140;28;20919;-72
2022/05/11 07:28:50;;;;;;;11.87;5.60;;;16.30;99.90;;;;;;5049167;28;20479;-73
2022/05/11 07:31:16;;;;;;;14.60;5.50;;;;;;;;;;5048316;28;20425;-72
2022/05/11 07:33:43;;;;;;;14.35;5.18;;;16.20;99.90;;;;;;5029533;28;20421;-73
2022/05/11 07:36:08;;;;;;;14.07;5.20;;;16.00;99.90;;;;;;5048655;28;20417;-73
2022/05/11 07:38:38;;;;;;;13.13;4.60;;;16.00;99.90;;;;;;5049876;28;20425;-73
2022/05/11 07:41:05;;;;;;;14.75;4.40;;;16.10;99.90;;;;;;5044658;28;20433;-73
2022/05/11 07:43:31;;;;;;;10.88;4.30;;;16.20;99.90;;;;;;5043747;28;20421;-73
2022/05/11 07:45:56;;;;;;;12.50;4.38;;;16.20;99.90;;;;;;5048442;28;20921;-73
2022/05/11 07:48:22;;;;;;;10.43;3.95;;;16.30;99.90;;;;;;5046297;28;20470;-73
2022/05/11 07:50:48;;;;;;;13.65;4.10;;;16.30;99.90;;;;;;5012619;28;20434;-72
2022/05/11 07:53:14;;;;;;;14.68;4.65;;;;;;;;;;5048491;28;20456;-72
2022/05/11 07:55:40;;;;;;;12.52;4.13;;;16.60;99.90;;;;;;5053036;28;20444;-73
2022/05/11 08:00:50;;;;;;;14.98;4.13;;;16.60;99.90;;;;;;5050490;28;20446;-77
2022/05/11 08:03:16;;;;;;;12.43;3.75;;;16.70;99.90;;;;;;5051614;28;20425;-77
2022/05/11 08:05:41;;;;;;;10.90;4.17;;;16.70;99.90;;;;;;5054124;28;20441;-77
2022/05/11 08:08:08;;;;;;;14.23;4.23;;;17.30;99.90;;;;;;5053564;28;20913;-76
2022/05/11 08:10:43;;;;;;;15.05;3.70;;;17.20;99.90;;;;;;5052268;28;20528;-76
2022/05/11 08:13:10;;;;;;;13.88;3.53;;;17.00;99.90;;;;;;5049507;28;20432;-76
2022/05/11 08:15:39;;;;;;;16.15;3.90;;;17.00;99.90;;;;;;5032142;28;20909;-77
2022/05/11 08:18:06;;;;;;;15.23;3.83;;;17.40;99.90;;;;;;5054749;28;21110;-77
2022/05/11 08:20:35;;;;;;;13.38;3.90;;;17.60;99.90;;;;;;5050055;28;20984;-76
2022/05/11 08:23:02;;;;;;;14.07;3.50;;;17.40;99.90;;;;;;5036057;28;20986;-75
2022/05/11 08:25:29;;;;;;;12.38;3.33;;;17.60;99.90;;;;;;5053722;28;20455;-74
2022/05/11 08:27:57;;;;;;;14.77;4.20;;;17.80;99.90;;;;;;5051703;28;20917;-75
2022/05/11 08:33:19;;;;;;;12.55;3.70;;;17.30;99.90;;;;;;5053027;28;20896;-75
2022/05/11 08:35:45;;;;;;;14.48;3.72;;;17.60;99.90;;;;;;5052208;28;20428;-74
2022/05/11 08:38:11;;;;;;;15.50;3.63;;;17.70;99.90;;;;;;5052110;28;20425;-75
2022/05/11 08:40:37;;;;;;;13.13;3.95;;;17.80;99.90;;;;;;5051594;28;20428;-75
2022/05/11 08:43:05;;;;;;;12.93;3.55;;;17.60;99.90;;;;;;5034244;28;20421;-75
2022/05/11 08:45:55;;;;;;;11.57;3.38;;;17.90;99.90;;;;;;5050186;28;20424;-75
2022/05/11 08:48:40;;;;;;;10.23;2.95;;;17.80;99.90;;;;;;5020430;28;20916;-74
2022/05/11 08:51:12;;;;;;;13.13;3.28;;;17.80;99.90;;;;;;5047784;28;20424;-75
2022/05/11 08:53:41;;;;;;;14.50;3.60;;;18.10;99.90;;;;;;5051493;28;20973;-74
2022/05/11 08:56:14;;;;;;;11.52;3.67;;;18.20;99.90;;;;;;5034379;28;20464;-75
2022/05/11 08:58:48;;;;;;;13.82;4.07;;;18.40;99.90;;;;;;5032296;28;20451;-76
2022/05/11 09:01:34;;;;;;;14.13;3.50;;;18.10;99.90;;;;;;5051175;28;20421;-75
2022/05/11 09:04:04;;;;;;;12.73;3.50;;;18.10;99.90;;;;;;5051524;28;20432;-75
2022/05/11 09:06:30;;;;;;;13.65;4.18;;;18.20;99.90;;;;;;5038108;28;20434;-75
2022/05/11 09:09:01;;;;;;;13.98;3.80;;;18.20;99.90;;;;;;5034001;28;20421;-75
2022/05/11 09:11:40;;;;;;;12.02;4.00;;;18.30;99.90;;;;;;5051426;28;20425;-75
2022/05/11 09:14:07;;;;;;;16.25;4.07;;;18.20;99.90;;;;;;5049331;28;20496;-75
2022/05/11 09:16:43;;;;;;;14.38;4.07;;;18.00;99.90;;;;;;5049996;28;20758;-76
2022/05/11 09:19:21;;;;;;;15.38;3.58;;;18.20;99.90;;;;;;5048574;28;20433;-76
2022/05/11 09:22:07;;;;;;;11.30;3.10;;;18.20;99.90;;;;;;5051961;28;20401;-75
2022/05/11 09:24:43;;;;;;;10.02;2.90;;;18.20;99.90;;;;;;5050252;28;20435;-75
2022/05/11 09:27:20;;;;;;;19.52;3.60;;;17.90;99.90;;;;;;5051514;28;20432;-75
2022/05/11 09:29:53;;;;;;;11.60;3.80;;;18.30;99.90;;;;;;5033091;28;20427;-76
2022/05/11 09:32:36;;;;;;;13.63;3.73;;;18.30;99.90;;;;;;5049510;28;20426;-74
2022/05/11 09:35:22;;;;;;;12.50;3.72;;;18.30;99.90;;;;;;5054262;28;21016;-75
2022/05/11 09:38:14;;;;;;;14.18;3.58;;;18.50;99.90;;;;;;5038899;28;20422;-77
2022/05/11 09:41:18;;;;;;;14.33;3.97;;;19.10;99.90;;;;;;5012597;28;20951;-76
2022/05/11 09:43:46;;;;;;;10.83;3.30;;;18.80;99.90;;;;;;5037002;28;20834;-77
2022/05/11 09:46:31;;;;;;;12.30;3.80;;;19.10;99.90;;;;;;5056056;28;20785;-77
2022/05/11 09:49:00;;;;;;;16.07;4.10;;;19.30;99.90;;;;;;5055612;28;20476;-77
2022/05/11 09:51:34;;;;;;;12.43;4.10;;;19.30;99.90;;;;;;5020435;28;20403;-77
2022/05/11 09:54:18;;;;;;;12.77;3.50;;;18.90;99.90;;;;;;5048633;28;20421;-77
2022/05/11 09:57:01;;;;;;;13.75;3.67;;;19.20;99.90;;;;;;5028554;28;20459;-77
2022/05/11 09:59:37;;;;;;;13.07;3.40;;;18.90;99.90;;;;;;5038123;28;22536;-76
2022/05/11 10:02:32;;;;;;;13.68;3.85;;;19.10;99.90;;;;;;5055432;28;20426;-76
2022/05/11 10:05:12;;;;;;;12.82;3.60;;;19.00;99.90;;;;;;5039906;28;20397;-76
2022/05/11 10:08:04;;;;;;;10.63;3.45;;;19.00;99.90;;;;;;5051535;28;20426;-76
2022/05/11 10:10:48;;;;;;;11.73;3.60;;;18.30;99.90;;;;;;5049342;28;20924;-77
2022/05/11 10:13:35;;;;;;;13.75;4.57;;;18.20;99.90;;;;;;5038604;28;20428;-77
2022/05/11 10:22:15;;;;;;;17.58;5.65;;;18.30;99.90;;;;;;5053235;28;20425;-78
2022/05/11 10:24:59;;;;;;;14.65;5.10;;;18.30;99.90;;;;;;5054729;28;20408;-76
2022/05/11 10:27:47;;;;;;;15.20;5.53;;;18.30;99.90;;;;;;5053162;28;20479;-75
2022/05/11 10:30:55;;;;;;;15.88;5.72;;;18.40;99.90;;;;;;5037481;28;20436;-75
2022/05/11 10:33:32;;;;;;;15.15;5.35;;;18.70;99.90;;;;;;5020172;28;20947;-76
2022/05/11 10:36:30;;;;;;;11.52;4.50;;;18.70;99.90;;;;;;5053168;28;20482;-75
2022/05/11 10:38:58;;;;;;;15.05;4.30;;;18.40;99.90;;;;;;5050066;28;20487;-76
2022/05/11 10:42:02;;;;;;;12.73;4.68;;;18.50;99.90;;;;;;5053288;28;20437;-76
2022/05/11 10:44:59;;;;;;;14.82;4.78;;;18.40;99.90;;;;;;5028452;28;20453;-76
2022/05/11 10:47:52;;;;;;;15.57;5.03;;;18.80;99.90;;;;;;5053459;28;20429;-76
2022/05/11 10:50:36;;;;;;;12.20;4.50;;;18.50;99.90;;;;;;5052300;28;20505;-75
2022/05/11 10:53:33;;;;;;;12.98;4.60;;;19.00;99.90;;;;;;5050642;28;20433;-76
2022/05/11 10:56:39;;;;;;;17.05;4.45;;;19.30;99.90;;;;;;5032866;28;20417;-76
2022/05/11 10:59:55;;;;;;;14.63;3.95;;;19.70;99.90;;;;;;5050627;28;20948;-76
2022/05/11 11:02:45;;;;;;;11.02;3.70;;;19.70;99.90;;;;;;5016933;28;20427;-75
2022/05/11 11:05:41;;;;;;;11.75;3.45;;;20.20;99.90;;;;;;5048091;28;20421;-75
2022/05/11 11:08:19;;;;;;;11.10;3.83;;;20.60;99.90;;;;;;5050294;28;20507;-75
2022/05/11 11:11:12;;;;;;;11.50;3.10;;;20.30;99.90;;;;;;5052571;28;20426;-75
2022/05/11 11:13:54;;;;;;;11.25;3.10;;;20.20;99.90;;;;;;5047377;28;20423;-75
2022/05/11 11:16:25;;;;;;;11.23;3.33;;;20.30;99.90;;;;;;5052357;28;20417;-75
2022/05/11 11:18:52;;;;;;;11.10;3.63;;;20.50;99.90;;;;;;5050207;28;20535;-75
2022/05/11 11:21:20;;;;;;;9.70;3.30;;;20.40;99.90;;;;;;5050623;28;20413;-75
2022/05/11 11:24:17;;;;;;;9.73;3.35;;;20.40;99.90;;;;;;5013315;28;20427;-75
2022/05/11 11:26:59;;;;;;;13.60;2.90;;;20.20;99.90;;;;;;5000006;28;20422;-74
2022/05/11 11:29:58;;;;;;;12.20;3.63;;;20.60;99.90;;;;;;4996167;28;20427;-74
2022/05/11 11:32:24;;;;;;;9.95;2.70;;;20.70;99.90;;;;;;5021697;28;20856;-76
2022/05/11 11:35:10;;;;;;;9.70;2.50;;;20.60;99.90;;;;;;5010914;28;20503;-76
2022/05/11 11:37:39;;;;;;;10.02;2.78;;;20.50;99.90;;;;;;5006173;28;20427;-75
2022/05/11 11:40:21;;;;;;;9.38;2.40;;;20.70;99.90;;;;;;5009902;28;20434;-76
2022/05/11 11:42:47;;;;;;;10.73;3.03;;;21.40;99.90;;;;;;5007659;28;20459;-76
2022/05/11 11:45:26;;;;;;;19.52;2.95;;;20.40;99.90;;;;;;4995866;28;20422;-76
2022/05/11 11:48:16;;;;;;;10.13;2.30;;;21.30;99.90;;;;;;5021033;28;20420;-76
2022/05/11 11:50:49;;;;;;;9.20;2.60;;;21.80;99.90;;;;;;5004415;28;20486;-75
2022/05/11 11:53:49;;;;;;;7.40;2.42;;;21.80;99.90;;;;;;5003900;28;20431;-77
2022/05/11 11:56:23;;;;;;;10.27;2.40;;;21.50;99.90;;;;;;5048425;28;20443;-77
2022/05/11 11:59:24;;;;;;;7.30;2.42;;;21.00;99.90;;;;;;5027693;28;20496;-76
2022/05/11 12:01:55;;;;;;;9.18;2.30;;;20.80;99.90;;;;;;5032521;28;20500;-76
2022/05/11 12:04:29;;;;;;;7.95;2.40;;;20.70;99.90;;;;;;5054217;28;20414;-76
2022/05/11 12:15:34;;;;;;;6.80;2.00;;;21.20;99.90;;;;;;5027341;28;20810;-77
2022/05/11 12:18:20;;;;;;;9.33;2.10;;;21.30;99.90;;;;;;5050637;28;20437;-77
2022/05/11 12:20:46;;;;;;;6.38;1.90;;;21.50;99.90;;;;;;5051529;28;20445;-77
2022/05/11 12:23:22;;;;;;;9.25;2.20;;;21.50;99.90;;;;;;5051538;28;20418;-77
2022/05/11 12:26:07;;;;;;;7.88;2.15;;;21.60;99.90;;;;;;5053229;28;20429;-78
2022/05/11 12:28:37;;;;;;;7.57;2.38;;;21.70;99.90;;;;;;5049124;28;20485;-78
2022/05/11 12:31:07;;;;;;;11.20;2.88;;;22.00;99.90;;;;;;5055733;28;20411;-78
2022/05/11 12:33:41;;;;;;;7.82;2.40;;;21.50;99.90;;;;;;5041389;28;20402;-78
2022/05/11 12:36:07;;;;;;;6.72;2.13;;;21.60;99.90;;;;;;5035178;28;20456;-78
2022/05/11 12:38:38;;;;;;;12.68;2.85;;;21.80;99.90;;;;;;5036513;28;20529;-78
2022/05/11 12:41:13;;;;;;;14.38;2.67;;;21.70;99.90;;;;;;5040569;28;20800;-78
2022/05/11 12:43:40;;;;;;;9.77;2.80;;;21.60;99.90;;;;;;5036055;28;20421;-78
2022/05/11 12:46:16;;;;;;;10.77;2.50;;;21.50;99.90;;;;;;5025260;28;20412;-78
2022/05/11 12:48:52;;;;;;;11.15;3.05;;;21.70;99.90;;;;;;5050989;28;20924;-77
2022/05/11 12:51:29;;;;;;;12.88;2.45;;;22.00;99.90;;;;;;5039284;28;20478;-76
2022/05/11 12:53:58;;;;;;;11.25;3.08;;;22.00;99.90;;;;;;5037374;28;20436;-75
2022/05/11 12:56:33;;;;;;;11.40;3.50;;;21.80;99.90;;;;;;5037013;28;20486;-75
2022/05/11 12:59:02;;;;;;;9.97;2.67;;;21.90;99.90;;;;;;5033096;28;20432;-74
2022/05/11 13:01:34;;;;;;;9.88;3.03;;;22.10;99.90;;;;;;5052650;28;20475;-74
2022/05/11 13:04:14;;;;;;;10.07;2.60;;;21.80;99.90;;;;;;5052052;28;20460;-74
2022/05/11 13:06:46;;;;;;;9.80;2.92;;;22.00;99.90;;;;;;5051725;28;20838;-75
2022/05/11 13:09:23;;;;;;;10.63;2.70;;;22.20;99.90;;;;;;5051658;28;20436;-73
2022/05/11 13:11:49;;;;;;;13.38;3.65;;;21.80;99.90;;;;;;5048857;28;20425;-74
2022/05/11 13:14:19;;;;;;;10.50;3.10;;;21.70;99.90;;;;;;5044583;28;20504;-74
2022/05/11 13:16:58;;;;;;;9.88;2.80;;;21.80;99.90;;;;;;5046688;28;20420;-74
2022/05/11 13:19:32;;;;;;;10.68;2.65;;;21.90;99.90;;;;;;5051855;28;20471;-74
2022/05/11 13:22:02;;;;;;;10.23;2.70;;;21.60;99.90;;;;;;5047737;28;20413;-74
2022/05/11 13:24:40;;;;;;;8.63;2.53;;;21.70;99.90;;;;;;5051240;28;20517;-74
2022/05/11 13:27:34;;;;;;;13.40;2.80;;;21.80;99.90;;;;;;5046742;28;20924;-74
2022/05/11 13:30:19;;;;;;;8.90;2.40;;;21.80;99.90;;;;;;5049136;28;20417;-74
2022/05/11 13:32:46;;;;;;;10.30;2.70;;;22.10;99.90;;;;;;5050421;28;20428;-74
2022/05/11 13:35:39;;;;;;;15.98;3.00;;;21.80;99.90;;;;;;5053797;28;20459;-74
2022/05/11 13:38:10;;;;;;;15.55;3.10;;;21.60;99.90;;;;;;5042299;28;21020;-73
2022/05/11 13:40:55;;;;;;;8.25;2.33;;;21.20;99.90;;;;;;5029243;28;20483;-73
2022/05/11 13:43:36;;;;;;;11.23;2.58;;;21.20;99.90;;;;;;5043271;28;20417;-75
2022/05/11 13:46:30;;;;;;;9.18;2.28;;;21.30;99.90;;;;;;5051748;28;20417;-75
2022/05/11 13:49:20;;;;;;;9.70;2.37;;;21.00;99.90;;;;;;5045846;28;20518;-74
2022/05/11 13:51:46;;;;;;;8.57;2.50;;;21.20;99.90;;;;;;5051702;28;20448;-75
2022/05/11 13:54:29;;;;;;;10.73;2.47;;;20.80;99.90;;;;;;5047884;28;20927;-74
2022/05/11 13:57:02;;;;;;;8.63;2.60;;;21.00;99.90;;;;;;5049759;28;20452;-74
2022/05/11 13:59:29;;;;;;;10.43;2.92;;;21.20;99.90;;;;;;5050189;28;20425;-75
2022/05/11 14:01:56;;;;;;;12.77;2.55;;;20.90;99.90;;;;;;5047698;28;20417;-74
2022/05/11 14:04:33;;;;;;;8.75;2.30;;;21.20;99.90;;;;;;5048776;28;20418;-74
2022/05/11 14:07:27;;;;;;;9.88;2.58;;;21.10;99.90;;;;;;5041338;28;20892;-74
2022/05/11 14:09:55;;;;;;;9.68;2.17;;;20.80;99.90;;;;;;5049837;28;20426;-75
2022/05/11 14:12:23;;;;;;;11.55;2.50;;;21.10;99.90;;;;;;5047898;28;20425;-74
2022/05/11 14:14:49;;;;;;;8.55;2.10;;;21.20;99.90;;;;;;5046535;28;20444;-75
2022/05/11 14:17:26;;;;;;;11.25;2.40;;;20.90;99.90;;;;;;5009967;28;20522;-75
2022/05/11 14:19:56;;;;;;;10.05;2.45;;;21.00;99.90;;;;;;5048030;28;20425;-75
2022/05/11 14:22:22;;;;;;;11.10;2.50;;;21.30;99.90;;;;;;5047864;28;20421;-74